createdAt,value
2023-04-27T00:00:02.677Z,9.34
2023-04-27T00:00:13.447Z,9.28
2023-04-27T00:00:24.497Z,9.28
2023-04-27T00:00:35.469Z,9.31
2023-04-27T00:00:46.268Z,9.34
2023-04-27T00:00:57.322Z,9.35
2023-04-27T00:01:08.273Z,9.30
2023-04-27T00:01:19.063Z,9.30
2023-04-27T00:01:30.107Z,9.28
2023-04-27T00:01:41.085Z,9.28
2023-04-27T00:01:51.992Z,9.27
2023-04-27T00:02:02.640Z,9.25
2023-04-27T00:02:13.752Z,9.27
2023-04-27T00:02:24.597Z,9.27
2023-04-27T00:02:35.247Z,9.27
2023-04-27T00:02:45.872Z,9.25
2023-04-27T00:02:57.004Z,9.30
2023-04-27T00:03:07.889Z,9.25
2023-04-27T00:03:18.823Z,9.20
2023-04-27T00:03:29.357Z,9.27
2023-04-27T00:03:40.169Z,9.20
2023-04-27T00:03:50.833Z,9.23
2023-04-27T00:04:01.818Z,9.28
2023-04-27T00:04:12.638Z,9.21
2023-04-27T00:04:23.226Z,9.25
2023-04-27T00:04:34.201Z,9.21
2023-04-27T00:04:45.192Z,9.21
2023-04-27T00:04:56.132Z,9.20
2023-04-27T00:05:06.724Z,9.21
2023-04-27T00:05:17.612Z,9.20
2023-04-27T00:05:28.185Z,9.23
2023-04-27T00:05:39.376Z,9.20
2023-04-27T00:05:49.623Z,9.23
2023-04-27T00:06:00.636Z,9.21
2023-04-27T00:06:11.526Z,9.23
2023-04-27T00:06:22.083Z,9.21
2023-04-27T00:06:33.074Z,9.21
2023-04-27T00:06:43.797Z,9.20
2023-04-27T00:06:54.899Z,9.20
2023-04-27T00:07:05.864Z,9.15
2023-04-27T00:07:16.646Z,9.20
2023-04-27T00:07:27.721Z,9.16
2023-04-27T00:07:38.668Z,9.18
2023-04-27T00:07:49.526Z,9.18
2023-04-27T00:08:00.004Z,9.18
2023-04-27T00:08:10.968Z,9.20
2023-04-27T00:08:21.741Z,9.18
2023-04-27T00:08:32.852Z,9.21
2023-04-27T00:08:43.789Z,9.18
2023-04-27T00:08:54.549Z,9.24
2023-04-27T00:09:05.599Z,9.15
2023-04-27T00:09:16.765Z,9.16
2023-04-27T00:09:27.603Z,9.18
2023-04-27T00:09:38.750Z,9.18
2023-04-27T00:09:49.703Z,9.10
2023-04-27T00:10:00.487Z,9.12
2023-04-27T00:10:11.520Z,9.15
2023-04-27T00:10:22.495Z,9.15
2023-04-27T00:10:33.254Z,9.16
2023-04-27T00:10:44.314Z,9.10
2023-04-27T00:10:55.286Z,9.09
2023-04-27T00:11:06.106Z,9.18
2023-04-27T00:11:17.091Z,9.18
2023-04-27T00:11:28.066Z,9.12
2023-04-27T00:11:38.817Z,9.18
2023-04-27T00:11:49.863Z,9.13
2023-04-27T00:12:00.868Z,9.15
2023-04-27T00:12:11.626Z,9.15
2023-04-27T00:12:22.789Z,9.15
2023-04-27T00:12:33.721Z,9.12
2023-04-27T00:12:44.470Z,9.15
2023-04-27T00:12:55.537Z,9.16
2023-04-27T00:13:06.515Z,9.16
2023-04-27T00:13:17.303Z,9.13
2023-04-27T00:13:28.344Z,9.09
2023-04-27T00:13:39.308Z,9.12
2023-04-27T00:13:50.090Z,9.12
2023-04-27T00:14:01.127Z,9.06
2023-04-27T00:14:12.100Z,9.15
2023-04-27T00:14:22.897Z,9.12
2023-04-27T00:14:33.901Z,9.09
2023-04-27T00:14:44.864Z,9.09
2023-04-27T00:14:55.642Z,9.09
2023-04-27T00:15:06.667Z,9.12
2023-04-27T00:15:17.638Z,9.06
2023-04-27T00:15:28.465Z,9.13
2023-04-27T00:15:39.478Z,9.06
2023-04-27T00:15:50.518Z,9.09
2023-04-27T00:16:01.355Z,9.15
2023-04-27T00:16:12.387Z,9.06
2023-04-27T00:16:23.402Z,9.09
2023-04-27T00:16:34.258Z,9.12
2023-04-27T00:16:44.870Z,9.06
2023-04-27T00:16:55.315Z,9.09
2023-04-27T00:17:06.074Z,9.06
2023-04-27T00:17:17.123Z,9.06
2023-04-27T00:17:28.189Z,9.12
2023-04-27T00:17:38.968Z,9.05
2023-04-27T00:17:50.011Z,9.06
2023-04-27T00:18:01.070Z,9.05
2023-04-27T00:18:11.786Z,9.05
2023-04-27T00:18:22.838Z,9.09
2023-04-27T00:18:33.910Z,9.09
2023-04-27T00:18:44.620Z,9.06
2023-04-27T00:18:55.658Z,9.04
2023-04-27T00:19:06.628Z,9.09
2023-04-27T00:19:17.478Z,9.10
2023-04-27T00:19:28.481Z,9.05
2023-04-27T00:19:39.452Z,9.06
2023-04-27T00:19:50.250Z,9.09
2023-04-27T00:20:01.327Z,9.04
2023-04-27T00:20:12.291Z,9.10
2023-04-27T00:20:23.048Z,9.05
2023-04-27T00:20:34.151Z,9.01
2023-04-27T00:20:45.101Z,9.04
2023-04-27T00:20:55.920Z,9.05
2023-04-27T00:21:06.937Z,8.97
2023-04-27T00:21:17.943Z,9.01
2023-04-27T00:21:28.690Z,9.06
2023-04-27T00:21:39.772Z,9.01
2023-04-27T00:21:50.722Z,9.02
2023-04-27T00:22:01.493Z,9.04
2023-04-27T00:22:12.072Z,9.01
2023-04-27T00:22:23.060Z,9.06
2023-04-27T00:22:33.876Z,9.02
2023-04-27T00:22:44.359Z,9.01
2023-04-27T00:22:55.326Z,9.02
2023-04-27T00:23:06.121Z,9.05
2023-04-27T00:23:17.191Z,8.97
2023-04-27T00:23:28.140Z,9.02
2023-04-27T00:23:39.042Z,9.04
2023-04-27T00:23:49.599Z,9.02
2023-04-27T00:24:00.543Z,9.02
2023-04-27T00:24:11.320Z,9.01
2023-04-27T00:24:22.397Z,9.01
2023-04-27T00:24:33.337Z,8.97
2023-04-27T00:24:44.105Z,9.02
2023-04-27T00:24:55.152Z,8.99
2023-04-27T00:25:06.110Z,9.05
2023-04-27T00:25:16.986Z,9.02
2023-04-27T00:25:27.456Z,8.99
2023-04-27T00:25:38.407Z,9.02
2023-04-27T00:25:49.161Z,8.99
2023-04-27T00:26:00.270Z,9.01
2023-04-27T00:26:11.208Z,8.97
2023-04-27T00:26:21.969Z,9.04
2023-04-27T00:26:33.011Z,8.99
2023-04-27T00:26:44.000Z,9.02
2023-04-27T00:26:54.765Z,9.04
2023-04-27T00:27:05.816Z,8.99
2023-04-27T00:27:16.780Z,8.99
2023-04-27T00:27:27.538Z,9.01
2023-04-27T00:27:38.605Z,9.02
2023-04-27T00:27:49.554Z,9.04
2023-04-27T00:28:00.425Z,9.02
2023-04-27T00:28:10.922Z,9.04
2023-04-27T00:28:21.881Z,9.04
2023-04-27T00:28:32.650Z,8.99
2023-04-27T00:28:43.855Z,9.02
2023-04-27T00:28:54.295Z,9.05
2023-04-27T00:29:05.080Z,9.01
2023-04-27T00:29:16.109Z,9.02
2023-04-27T00:29:27.175Z,9.01
2023-04-27T00:29:37.887Z,9.04
2023-04-27T00:29:48.942Z,9.02
2023-04-27T00:29:59.895Z,9.04
2023-04-27T00:30:10.670Z,9.02
2023-04-27T00:30:21.709Z,9.01
2023-04-27T00:30:32.679Z,9.01
2023-04-27T00:30:43.456Z,9.06
2023-04-27T00:30:54.504Z,9.05
2023-04-27T00:31:05.476Z,9.01
2023-04-27T00:31:16.413Z,9.05
2023-04-27T00:31:26.964Z,9.02
2023-04-27T00:31:37.931Z,9.02
2023-04-27T00:31:48.721Z,9.02
2023-04-27T00:31:59.775Z,9.02
2023-04-27T00:32:10.848Z,9.02
2023-04-27T00:32:21.798Z,9.05
2023-04-27T00:32:32.330Z,9.01
2023-04-27T00:32:43.380Z,9.04
2023-04-27T00:32:54.151Z,9.05
2023-04-27T00:33:05.241Z,9.06
2023-04-27T00:33:16.190Z,9.02
2023-04-27T00:33:26.946Z,9.04
2023-04-27T00:33:38.020Z,9.04
2023-04-27T00:33:49.024Z,9.04
2023-04-27T00:33:59.776Z,9.05
2023-04-27T00:34:10.824Z,9.04
2023-04-27T00:34:21.809Z,9.02
2023-04-27T00:34:32.570Z,9.05
2023-04-27T00:34:43.765Z,9.05
2023-04-27T00:34:54.699Z,9.06
2023-04-27T00:35:05.447Z,9.04
2023-04-27T00:35:16.503Z,9.05
2023-04-27T00:35:27.545Z,9.01
2023-04-27T00:35:38.297Z,9.10
2023-04-27T00:35:49.348Z,9.06
2023-04-27T00:36:00.324Z,9.04
2023-04-27T00:36:11.084Z,9.05
2023-04-27T00:36:22.204Z,9.04
2023-04-27T00:36:33.116Z,9.06
2023-04-27T00:36:43.884Z,9.05
2023-04-27T00:36:54.934Z,9.01
2023-04-27T00:37:05.985Z,9.02
2023-04-27T00:37:16.744Z,8.99
2023-04-27T00:37:27.780Z,9.05
2023-04-27T00:37:38.784Z,9.01
2023-04-27T00:37:49.552Z,9.05
2023-04-27T00:38:00.627Z,9.04
2023-04-27T00:38:11.582Z,9.05
2023-04-27T00:38:22.338Z,9.04
2023-04-27T00:38:33.403Z,9.01
2023-04-27T00:38:44.364Z,9.01
2023-04-27T00:38:55.153Z,9.02
2023-04-27T00:39:06.182Z,9.01
2023-04-27T00:39:17.162Z,9.04
2023-04-27T00:39:27.927Z,9.06
2023-04-27T00:39:38.960Z,9.01
2023-04-27T00:39:49.934Z,9.05
2023-04-27T00:40:00.686Z,9.04
2023-04-27T00:40:11.742Z,9.05
2023-04-27T00:40:22.715Z,8.96
2023-04-27T00:40:33.487Z,9.10
2023-04-27T00:40:44.533Z,9.02
2023-04-27T00:40:55.518Z,9.01
2023-04-27T00:41:06.289Z,9.09
2023-04-27T00:41:17.343Z,9.04
2023-04-27T00:41:28.309Z,9.04
2023-04-27T00:41:39.092Z,9.04
2023-04-27T00:41:50.143Z,9.04
2023-04-27T00:42:01.116Z,9.02
2023-04-27T00:42:11.904Z,8.99
2023-04-27T00:42:22.925Z,9.01
2023-04-27T00:42:33.902Z,9.05
2023-04-27T00:42:44.683Z,9.05
2023-04-27T00:42:55.737Z,9.02
2023-04-27T00:43:06.706Z,9.05
2023-04-27T00:43:17.459Z,9.05
2023-04-27T00:43:28.507Z,9.04
2023-04-27T00:43:39.495Z,9.04
2023-04-27T00:43:50.249Z,9.01
2023-04-27T00:44:01.412Z,9.04
2023-04-27T00:44:12.389Z,9.02
2023-04-27T00:44:23.129Z,9.05
2023-04-27T00:44:34.243Z,9.05
2023-04-27T00:44:45.188Z,9.01
2023-04-27T00:44:55.967Z,9.02
2023-04-27T00:45:07.006Z,9.06
2023-04-27T00:45:17.982Z,9.05
2023-04-27T00:45:28.780Z,9.01
2023-04-27T00:45:39.850Z,9.01
2023-04-27T00:45:50.833Z,9.02
2023-04-27T00:46:01.605Z,9.06
2023-04-27T00:46:12.138Z,9.02
2023-04-27T00:46:23.121Z,9.02
2023-04-27T00:46:33.872Z,9.04
2023-04-27T00:46:44.888Z,9.04
2023-04-27T00:46:55.974Z,9.04
2023-04-27T00:47:06.710Z,9.04
2023-04-27T00:47:17.750Z,9.01
2023-04-27T00:47:28.733Z,9.02
2023-04-27T00:47:39.485Z,9.05
2023-04-27T00:47:50.569Z,9.04
2023-04-27T00:48:01.580Z,9.02
2023-04-27T00:48:12.297Z,9.05
2023-04-27T00:48:23.339Z,8.99
2023-04-27T00:48:34.380Z,9.02
2023-04-27T00:48:45.148Z,9.05
2023-04-27T00:48:56.195Z,9.02
2023-04-27T00:49:07.206Z,9.04
2023-04-27T00:49:17.951Z,9.09
2023-04-27T00:49:28.987Z,9.01
2023-04-27T00:49:39.949Z,9.04
2023-04-27T00:49:50.801Z,9.02
2023-04-27T00:50:01.279Z,8.99
2023-04-27T00:50:12.266Z,9.02
2023-04-27T00:50:23.028Z,9.04
2023-04-27T00:50:34.073Z,9.02
2023-04-27T00:50:45.048Z,8.99
2023-04-27T00:50:55.845Z,9.04
2023-04-27T00:51:06.899Z,8.99
2023-04-27T00:51:17.888Z,9.04
2023-04-27T00:51:28.637Z,9.04
2023-04-27T00:51:39.683Z,9.02
2023-04-27T00:51:50.654Z,9.05
2023-04-27T00:52:01.439Z,9.09
2023-04-27T00:52:12.470Z,9.02
2023-04-27T00:52:23.437Z,9.05
2023-04-27T00:52:34.252Z,9.02
2023-04-27T00:52:45.303Z,9.04
2023-04-27T00:52:56.251Z,9.04
2023-04-27T00:53:07.067Z,9.04
2023-04-27T00:53:18.123Z,9.05
2023-04-27T00:53:29.079Z,8.99
2023-04-27T00:53:39.862Z,9.05
2023-04-27T00:53:50.996Z,9.04
2023-04-27T00:54:01.985Z,9.04
2023-04-27T00:54:12.741Z,9.06
2023-04-27T00:54:23.818Z,9.04
2023-04-27T00:54:34.761Z,9.05
2023-04-27T00:54:45.528Z,9.04
2023-04-27T00:54:56.596Z,9.02
2023-04-27T00:55:07.552Z,9.01
2023-04-27T00:55:18.323Z,9.04
2023-04-27T00:55:29.393Z,9.02
2023-04-27T00:55:40.394Z,9.02
2023-04-27T00:55:51.150Z,9.05
2023-04-27T00:56:02.208Z,9.06
2023-04-27T00:56:13.184Z,9.04
2023-04-27T00:56:23.947Z,9.02
2023-04-27T00:56:35.005Z,8.99
2023-04-27T00:56:46.058Z,9.01
2023-04-27T00:56:56.786Z,9.01
2023-04-27T00:57:07.831Z,9.01
2023-04-27T00:57:18.797Z,9.04
2023-04-27T00:57:29.596Z,9.01
2023-04-27T00:57:40.738Z,9.01
2023-04-27T00:57:51.715Z,9.02
2023-04-27T00:58:02.472Z,9.04
2023-04-27T00:58:13.529Z,9.01
2023-04-27T00:58:24.536Z,9.04
2023-04-27T00:58:35.274Z,9.02
2023-04-27T00:58:46.330Z,9.02
2023-04-27T00:58:57.309Z,9.05
2023-04-27T00:59:08.052Z,9.02
2023-04-27T00:59:19.106Z,9.04
2023-04-27T00:59:30.070Z,9.01
2023-04-27T00:59:40.857Z,9.02
2023-04-27T00:59:51.890Z,9.02
2023-04-27T01:00:02.902Z,8.97
2023-04-27T01:00:13.641Z,9.01
2023-04-27T01:00:24.682Z,8.94
2023-04-27T01:00:35.639Z,9.01
2023-04-27T01:00:46.441Z,8.99
2023-04-27T01:00:57.532Z,8.99
2023-04-27T01:01:08.499Z,8.97
2023-04-27T01:01:19.333Z,9.04
2023-04-27T01:01:29.816Z,8.97
2023-04-27T01:01:40.817Z,8.99
2023-04-27T01:01:51.564Z,9.04
2023-04-27T01:02:02.625Z,9.04
2023-04-27T01:02:13.909Z,9.04
2023-04-27T01:02:24.897Z,9.01
2023-04-27T01:02:35.508Z,8.99
2023-04-27T01:02:46.152Z,9.02
2023-04-27T01:02:57.068Z,9.01
2023-04-27T01:03:07.890Z,9.01
2023-04-27T01:03:18.638Z,9.04
2023-04-27T01:03:29.598Z,9.02
2023-04-27T01:03:40.305Z,9.04
2023-04-27T01:03:51.135Z,9.04
2023-04-27T01:04:02.197Z,9.01
2023-04-27T01:04:13.024Z,9.02
2023-04-27T01:04:23.664Z,9.04
2023-04-27T01:04:34.591Z,9.09
2023-04-27T01:04:45.094Z,9.01
2023-04-27T01:04:56.064Z,9.01
2023-04-27T01:05:06.896Z,9.01
2023-04-27T01:05:17.377Z,9.04
2023-04-27T01:05:28.884Z,9.02
2023-04-27T01:05:39.347Z,9.05
2023-04-27T01:05:50.426Z,9.05
2023-04-27T01:06:01.396Z,9.01
2023-04-27T01:06:12.166Z,9.04
2023-04-27T01:06:23.208Z,9.02
2023-04-27T01:06:34.171Z,9.04
2023-04-27T01:06:44.946Z,9.04
2023-04-27T01:06:55.992Z,9.02
2023-04-27T01:07:06.941Z,9.05
2023-04-27T01:07:17.715Z,9.02
2023-04-27T01:07:28.775Z,9.02
2023-04-27T01:07:39.765Z,9.05
2023-04-27T01:07:50.571Z,9.05
2023-04-27T01:08:01.610Z,9.05
2023-04-27T01:08:12.586Z,9.05
2023-04-27T01:08:23.597Z,9.05
2023-04-27T01:08:34.652Z,9.04
2023-04-27T01:08:45.610Z,9.01
2023-04-27T01:08:56.381Z,9.05
2023-04-27T01:09:07.439Z,9.02
2023-04-27T01:09:18.404Z,9.05
2023-04-27T01:09:29.175Z,9.09
2023-04-27T01:09:40.090Z,9.05
2023-04-27T01:09:51.102Z,9.06
2023-04-27T01:10:01.824Z,9.04
2023-04-27T01:10:12.877Z,9.02
2023-04-27T01:10:23.861Z,9.06
2023-04-27T01:10:34.617Z,9.05
2023-04-27T01:10:45.762Z,9.05
2023-04-27T01:10:56.723Z,9.05
2023-04-27T01:11:07.468Z,9.02
2023-04-27T01:11:18.571Z,9.02
2023-04-27T01:11:29.474Z,9.09
2023-04-27T01:11:40.263Z,9.05
2023-04-27T01:11:51.324Z,9.02
2023-04-27T01:12:02.315Z,9.06
2023-04-27T01:12:13.081Z,9.06
2023-04-27T01:12:24.115Z,9.05
2023-04-27T01:12:35.081Z,9.05
2023-04-27T01:12:45.852Z,9.04
2023-04-27T01:12:56.952Z,9.02
2023-04-27T01:13:07.897Z,9.05
2023-04-27T01:13:18.673Z,9.04
2023-04-27T01:13:29.745Z,9.05
2023-04-27T01:13:40.794Z,9.04
2023-04-27T01:13:51.552Z,9.09
2023-04-27T01:14:02.598Z,9.05
2023-04-27T01:14:13.578Z,9.09
2023-04-27T01:14:24.337Z,9.06
2023-04-27T01:14:35.379Z,9.02
2023-04-27T01:14:46.366Z,9.05
2023-04-27T01:14:57.192Z,9.05
2023-04-27T01:15:07.690Z,9.02
2023-04-27T01:15:18.659Z,9.02
2023-04-27T01:15:29.431Z,9.05
2023-04-27T01:15:40.458Z,9.04
2023-04-27T01:15:51.529Z,9.04
2023-04-27T01:16:02.279Z,9.10
2023-04-27T01:16:13.396Z,9.12
2023-04-27T01:16:24.378Z,9.04
2023-04-27T01:16:35.135Z,9.05
2023-04-27T01:16:46.251Z,9.05
2023-04-27T01:16:57.222Z,9.05
2023-04-27T01:17:08.136Z,9.05
2023-04-27T01:17:18.789Z,9.06
2023-04-27T01:17:29.769Z,9.05
2023-04-27T01:17:40.541Z,9.12
2023-04-27T01:17:51.595Z,9.06
2023-04-27T01:18:02.619Z,9.06
2023-04-27T01:18:13.418Z,9.09
2023-04-27T01:18:24.469Z,9.06
2023-04-27T01:18:35.448Z,9.04
2023-04-27T01:18:46.210Z,9.12
2023-04-27T01:18:57.260Z,9.06
2023-04-27T01:19:08.238Z,9.05
2023-04-27T01:19:19.007Z,9.02
2023-04-27T01:19:30.051Z,9.06
2023-04-27T01:19:41.033Z,9.05
2023-04-27T01:19:51.796Z,9.10
2023-04-27T01:20:02.859Z,9.05
2023-04-27T01:20:13.805Z,9.02
2023-04-27T01:20:24.580Z,9.05
2023-04-27T01:20:35.645Z,9.05
2023-04-27T01:20:46.622Z,8.99
2023-04-27T01:20:57.452Z,9.09
2023-04-27T01:21:07.918Z,9.06
2023-04-27T01:21:18.890Z,9.06
2023-04-27T01:21:29.655Z,9.10
2023-04-27T01:21:40.702Z,9.10
2023-04-27T01:21:51.706Z,9.05
2023-04-27T01:22:02.448Z,9.04
2023-04-27T01:22:13.512Z,9.05
2023-04-27T01:22:24.486Z,9.05
2023-04-27T01:22:35.285Z,9.09
2023-04-27T01:22:45.796Z,9.06
2023-04-27T01:22:56.775Z,9.05
2023-04-27T01:23:07.539Z,9.12
2023-04-27T01:23:18.593Z,9.06
2023-04-27T01:23:29.557Z,9.06
2023-04-27T01:23:40.401Z,9.10
2023-04-27T01:23:50.862Z,9.10
2023-04-27T01:24:01.853Z,9.04
2023-04-27T01:24:12.621Z,9.10
2023-04-27T01:24:23.678Z,9.09
2023-04-27T01:24:34.738Z,9.06
2023-04-27T01:24:45.455Z,9.16
2023-04-27T01:24:56.545Z,9.09
2023-04-27T01:25:07.551Z,9.06
2023-04-27T01:25:18.341Z,9.09
2023-04-27T01:25:29.407Z,9.05
2023-04-27T01:25:40.360Z,9.02
2023-04-27T01:25:51.145Z,9.04
2023-04-27T01:26:02.200Z,9.01
2023-04-27T01:26:13.170Z,9.06
2023-04-27T01:26:23.921Z,9.09
2023-04-27T01:26:34.972Z,9.12
2023-04-27T01:26:45.934Z,9.05
2023-04-27T01:26:56.710Z,9.10
2023-04-27T01:27:07.740Z,9.05
2023-04-27T01:27:18.697Z,9.04
2023-04-27T01:27:29.461Z,9.09
2023-04-27T01:27:40.505Z,9.02
2023-04-27T01:27:51.486Z,9.02
2023-04-27T01:28:02.260Z,9.09
2023-04-27T01:28:13.324Z,9.02
2023-04-27T01:28:24.279Z,9.02
2023-04-27T01:28:35.060Z,9.05
2023-04-27T01:28:46.116Z,9.06
2023-04-27T01:28:57.089Z,9.06
2023-04-27T01:29:07.942Z,9.05
2023-04-27T01:29:18.415Z,9.04
2023-04-27T01:29:29.461Z,9.02
2023-04-27T01:29:40.199Z,9.04
2023-04-27T01:29:51.013Z,9.02
2023-04-27T01:30:01.943Z,9.02
2023-04-27T01:30:12.697Z,9.01
2023-04-27T01:30:23.756Z,9.01
2023-04-27T01:30:34.739Z,9.01
2023-04-27T01:30:45.495Z,8.99
2023-04-27T01:30:56.582Z,8.99
2023-04-27T01:31:07.586Z,9.04
2023-04-27T01:31:18.410Z,9.01
2023-04-27T01:31:29.496Z,8.96
2023-04-27T01:31:40.514Z,8.99
2023-04-27T01:31:51.298Z,9.01
2023-04-27T01:32:02.341Z,8.94
2023-04-27T01:32:13.307Z,8.97
2023-04-27T01:32:24.146Z,8.99
2023-04-27T01:32:34.723Z,8.99
2023-04-27T01:32:45.678Z,8.97
2023-04-27T01:32:56.453Z,8.94
2023-04-27T01:33:07.551Z,8.91
2023-04-27T01:33:18.520Z,8.93
2023-04-27T01:33:29.349Z,8.99
2023-04-27T01:33:40.387Z,8.97
2023-04-27T01:33:51.381Z,8.97
2023-04-27T01:34:02.132Z,8.97
2023-04-27T01:34:13.191Z,8.96
2023-04-27T01:34:24.162Z,8.93
2023-04-27T01:34:34.979Z,9.01
2023-04-27T01:34:45.992Z,8.94
2023-04-27T01:34:56.948Z,8.94
2023-04-27T01:35:07.742Z,8.97
2023-04-27T01:35:18.797Z,9.01
2023-04-27T01:35:29.795Z,8.96
2023-04-27T01:35:40.547Z,8.96
2023-04-27T01:35:51.617Z,8.96
2023-04-27T01:36:02.639Z,8.93
2023-04-27T01:36:13.416Z,8.99
2023-04-27T01:36:24.449Z,8.99
2023-04-27T01:36:35.411Z,8.93
2023-04-27T01:36:46.203Z,8.97
2023-04-27T01:36:57.243Z,8.96
2023-04-27T01:37:08.215Z,8.96
2023-04-27T01:37:19.020Z,8.99
2023-04-27T01:37:30.027Z,8.94
2023-04-27T01:37:40.990Z,8.96
2023-04-27T01:37:51.823Z,8.94
2023-04-27T01:38:02.870Z,8.91
2023-04-27T01:38:13.799Z,8.94
2023-04-27T01:38:24.582Z,8.97
2023-04-27T01:38:35.608Z,8.99
2023-04-27T01:38:46.588Z,8.94
2023-04-27T01:38:57.374Z,8.94
2023-04-27T01:39:08.415Z,8.96
2023-04-27T01:39:19.436Z,8.93
2023-04-27T01:39:30.185Z,8.96
2023-04-27T01:39:41.200Z,8.96
2023-04-27T01:39:52.177Z,8.94
2023-04-27T01:40:02.950Z,8.93
2023-04-27T01:40:13.988Z,8.94
2023-04-27T01:40:24.953Z,8.93
2023-04-27T01:40:35.747Z,8.99
2023-04-27T01:40:46.797Z,8.93
2023-04-27T01:40:57.783Z,8.93
2023-04-27T01:41:08.542Z,8.94
2023-04-27T01:41:19.669Z,8.96
2023-04-27T01:41:30.577Z,8.88
2023-04-27T01:41:41.357Z,8.96
2023-04-27T01:41:52.398Z,8.97
2023-04-27T01:42:03.434Z,8.94
2023-04-27T01:42:14.181Z,8.93
2023-04-27T01:42:25.242Z,8.93
2023-04-27T01:42:36.216Z,8.94
2023-04-27T01:42:46.988Z,8.97
2023-04-27T01:42:58.023Z,8.93
2023-04-27T01:43:09.004Z,8.91
2023-04-27T01:43:19.800Z,8.93
2023-04-27T01:43:30.886Z,8.96
2023-04-27T01:43:41.920Z,8.96
2023-04-27T01:43:52.654Z,8.97
2023-04-27T01:44:03.825Z,8.97
2023-04-27T01:44:14.800Z,8.94
2023-04-27T01:44:25.554Z,8.97
2023-04-27T01:44:36.634Z,8.93
2023-04-27T01:44:47.598Z,8.94
2023-04-27T01:44:58.369Z,8.96
2023-04-27T01:45:09.424Z,8.93
2023-04-27T01:45:20.377Z,8.96
2023-04-27T01:45:31.178Z,8.96
2023-04-27T01:45:42.232Z,8.94
2023-04-27T01:45:53.222Z,8.96
2023-04-27T01:46:03.999Z,8.97
2023-04-27T01:46:15.037Z,8.90
2023-04-27T01:46:26.022Z,8.96
2023-04-27T01:46:36.809Z,8.94
2023-04-27T01:46:47.937Z,8.93
2023-04-27T01:46:58.885Z,8.93
2023-04-27T01:47:09.675Z,8.97
2023-04-27T01:47:20.731Z,8.97
2023-04-27T01:47:31.747Z,8.94
2023-04-27T01:47:42.522Z,9.01
2023-04-27T01:47:53.221Z,8.99
2023-04-27T01:48:03.729Z,8.96
2023-04-27T01:48:14.495Z,8.96
2023-04-27T01:48:25.538Z,8.93
2023-04-27T01:48:36.511Z,8.96
2023-04-27T01:48:47.293Z,8.94
2023-04-27T01:48:58.319Z,8.97
2023-04-27T01:49:09.317Z,8.91
2023-04-27T01:49:20.073Z,8.96
2023-04-27T01:49:31.132Z,8.93
2023-04-27T01:49:42.163Z,8.93
2023-04-27T01:49:52.917Z,8.99
2023-04-27T01:50:03.998Z,8.94
2023-04-27T01:50:14.931Z,8.91
2023-04-27T01:50:25.691Z,8.94
2023-04-27T01:50:36.733Z,8.93
2023-04-27T01:50:47.704Z,8.91
2023-04-27T01:50:58.459Z,9.02
2023-04-27T01:51:09.568Z,8.91
2023-04-27T01:51:20.543Z,8.94
2023-04-27T01:51:31.280Z,8.94
2023-04-27T01:51:42.431Z,8.94
2023-04-27T01:51:53.372Z,8.90
2023-04-27T01:52:04.127Z,8.91
2023-04-27T01:52:15.167Z,8.96
2023-04-27T01:52:26.149Z,8.94
2023-04-27T01:52:36.892Z,8.96
2023-04-27T01:52:47.957Z,8.99
2023-04-27T01:52:58.937Z,8.94
2023-04-27T01:53:09.712Z,8.97
2023-04-27T01:53:20.732Z,8.99
2023-04-27T01:53:31.705Z,8.93
2023-04-27T01:53:42.484Z,8.99
2023-04-27T01:53:53.512Z,8.96
2023-04-27T01:54:04.476Z,8.96
2023-04-27T01:54:15.275Z,8.94
2023-04-27T01:54:28.718Z,8.96
2023-04-27T01:54:37.079Z,8.96
2023-04-27T01:54:47.860Z,8.94
2023-04-27T01:54:58.901Z,8.96
2023-04-27T01:55:09.866Z,8.94
2023-04-27T01:55:20.713Z,9.01
2023-04-27T01:55:31.713Z,8.99
2023-04-27T01:55:42.712Z,8.96
2023-04-27T01:55:53.461Z,8.97
2023-04-27T01:56:04.496Z,8.94
2023-04-27T01:56:15.467Z,8.91
2023-04-27T01:56:26.251Z,8.99
2023-04-27T01:56:37.388Z,8.94
2023-04-27T01:56:48.313Z,8.96
2023-04-27T01:56:59.069Z,8.99
2023-04-27T01:57:10.116Z,8.97
2023-04-27T01:57:21.078Z,8.96
2023-04-27T01:57:31.858Z,9.01
2023-04-27T01:57:42.900Z,9.01
2023-04-27T01:57:53.922Z,8.93
2023-04-27T01:58:04.665Z,9.01
2023-04-27T01:58:15.711Z,8.96
2023-04-27T01:58:26.721Z,8.97
2023-04-27T01:58:37.503Z,8.99
2023-04-27T01:58:48.531Z,8.97
2023-04-27T01:58:59.683Z,8.96
2023-04-27T01:59:10.456Z,8.97
2023-04-27T01:59:21.506Z,8.99
2023-04-27T01:59:32.456Z,8.97
2023-04-27T01:59:43.219Z,9.02
2023-04-27T01:59:54.311Z,9.02
2023-04-27T02:00:05.330Z,8.99
2023-04-27T02:00:16.047Z,8.99
2023-04-27T02:00:27.075Z,9.01
2023-04-27T02:00:38.067Z,9.01
2023-04-27T02:00:48.853Z,8.99
2023-04-27T02:00:59.926Z,9.02
2023-04-27T02:01:10.852Z,8.96
2023-04-27T02:01:21.690Z,9.05
2023-04-27T02:01:32.242Z,9.02
2023-04-27T02:01:43.257Z,9.01
2023-04-27T02:01:54.018Z,9.04
2023-04-27T02:02:05.283Z,9.01
2023-04-27T02:02:15.717Z,9.02
2023-04-27T02:02:26.624Z,8.99
2023-04-27T02:02:37.291Z,8.97
2023-04-27T02:02:47.884Z,8.99
2023-04-27T02:02:58.831Z,9.04
2023-04-27T02:03:09.500Z,9.02
2023-04-27T02:03:20.078Z,8.97
2023-04-27T02:03:31.031Z,9.02
2023-04-27T02:03:41.652Z,9.05
2023-04-27T02:03:52.781Z,8.97
2023-04-27T02:04:03.844Z,9.02
2023-04-27T02:04:14.504Z,8.97
2023-04-27T02:04:25.144Z,9.02
2023-04-27T02:04:36.001Z,9.02
2023-04-27T02:04:46.513Z,9.04
2023-04-27T02:04:57.458Z,9.02
2023-04-27T02:05:08.297Z,9.05
2023-04-27T02:05:19.323Z,8.99
2023-04-27T02:05:30.288Z,8.99
2023-04-27T02:05:41.197Z,9.04
2023-04-27T02:05:51.685Z,8.96
2023-04-27T02:06:02.621Z,9.02
2023-04-27T02:06:13.395Z,9.01
2023-04-27T02:06:24.485Z,8.99
2023-04-27T02:06:35.484Z,8.97
2023-04-27T02:06:46.261Z,8.99
2023-04-27T02:06:56.744Z,9.01
2023-04-27T02:07:07.808Z,8.96
2023-04-27T02:07:18.536Z,9.01
2023-04-27T02:07:29.573Z,8.96
2023-04-27T02:07:40.545Z,8.94
2023-04-27T02:07:51.335Z,8.96
2023-04-27T02:08:02.361Z,8.97
2023-04-27T02:08:13.370Z,8.96
2023-04-27T02:08:24.121Z,9.02
2023-04-27T02:08:35.170Z,8.94
2023-04-27T02:08:46.204Z,8.97
2023-04-27T02:08:56.944Z,8.97
2023-04-27T02:09:07.986Z,8.96
2023-04-27T02:09:18.956Z,8.94
2023-04-27T02:09:29.738Z,8.96
2023-04-27T02:09:40.793Z,8.94
2023-04-27T02:09:51.768Z,8.94
2023-04-27T02:10:02.695Z,8.97
2023-04-27T02:10:13.154Z,8.94
2023-04-27T02:10:24.112Z,8.94
2023-04-27T02:10:34.963Z,8.93
2023-04-27T02:10:45.982Z,8.94
2023-04-27T02:10:56.929Z,8.93
2023-04-27T02:11:07.726Z,8.96
2023-04-27T02:11:18.764Z,8.87
2023-04-27T02:11:29.861Z,8.88
2023-04-27T02:11:40.597Z,8.90
2023-04-27T02:11:51.655Z,8.94
2023-04-27T02:12:02.603Z,8.94
2023-04-27T02:12:13.368Z,8.91
2023-04-27T02:12:24.466Z,8.93
2023-04-27T02:12:35.407Z,8.91
2023-04-27T02:12:46.171Z,8.94
2023-04-27T02:12:57.272Z,8.91
2023-04-27T02:13:08.225Z,8.94
2023-04-27T02:13:18.972Z,8.88
2023-04-27T02:13:30.028Z,8.88
2023-04-27T02:13:41.010Z,8.91
2023-04-27T02:13:51.838Z,8.90
2023-04-27T02:14:02.874Z,8.88
2023-04-27T02:14:13.817Z,8.87
2023-04-27T02:14:24.580Z,8.93
2023-04-27T02:14:35.690Z,8.91
2023-04-27T02:14:46.627Z,8.91
2023-04-27T02:14:57.393Z,8.87
2023-04-27T02:15:08.482Z,8.90
2023-04-27T02:15:19.445Z,8.90
2023-04-27T02:15:30.221Z,8.87
2023-04-27T02:15:41.329Z,8.88
2023-04-27T02:15:52.321Z,8.90
2023-04-27T02:16:03.195Z,8.88
2023-04-27T02:16:13.756Z,8.86
2023-04-27T02:16:24.734Z,8.81
2023-04-27T02:16:35.607Z,8.86
2023-04-27T02:16:46.150Z,8.88
2023-04-27T02:16:57.130Z,8.86
2023-04-27T02:17:07.904Z,8.88
2023-04-27T02:17:18.932Z,8.86
2023-04-27T02:17:30.096Z,8.87
2023-04-27T02:17:40.858Z,8.88
2023-04-27T02:17:51.907Z,8.87
2023-04-27T02:18:02.957Z,8.84
2023-04-27T02:18:13.681Z,8.83
2023-04-27T02:18:24.722Z,8.88
2023-04-27T02:18:35.717Z,8.83
2023-04-27T02:18:46.467Z,8.87
2023-04-27T02:18:57.522Z,8.88
2023-04-27T02:19:08.516Z,8.84
2023-04-27T02:19:19.279Z,8.83
2023-04-27T02:19:30.329Z,8.86
2023-04-27T02:19:41.329Z,8.86
2023-04-27T02:19:52.084Z,8.87
2023-04-27T02:20:03.130Z,8.90
2023-04-27T02:20:14.106Z,8.84
2023-04-27T02:20:24.877Z,8.86
2023-04-27T02:20:35.967Z,8.83
2023-04-27T02:20:46.909Z,8.88
2023-04-27T02:20:57.679Z,8.84
2023-04-27T02:21:08.731Z,8.87
2023-04-27T02:21:19.693Z,8.86
2023-04-27T02:21:30.464Z,8.83
2023-04-27T02:21:41.514Z,8.87
2023-04-27T02:21:52.489Z,8.87
2023-04-27T02:22:03.320Z,8.88
2023-04-27T02:22:14.352Z,8.90
2023-04-27T02:22:25.309Z,8.86
2023-04-27T02:22:36.111Z,8.86
2023-04-27T02:22:47.137Z,8.86
2023-04-27T02:22:58.165Z,8.87
2023-04-27T02:23:08.893Z,8.86
2023-04-27T02:23:20.078Z,8.83
2023-04-27T02:23:31.020Z,8.83
2023-04-27T02:23:41.757Z,8.90
2023-04-27T02:23:52.840Z,8.90
2023-04-27T02:24:03.799Z,8.84
2023-04-27T02:24:14.561Z,8.87
2023-04-27T02:24:25.313Z,8.86
2023-04-27T02:24:36.243Z,8.84
2023-04-27T02:24:47.020Z,8.84
2023-04-27T02:24:58.063Z,8.84
2023-04-27T02:25:09.041Z,8.86